Airfield :
LOGIN :

Register | Disclaimer

   EN    FR    IT 

 










Legend :    VFR   Marginal VFR   IFR   Intensive IFR   Very Intensive IFR
Visi :
Ceiling :
>= 8 km
>= 3000ft
5 to 8 km
1000 to 3000 ft
1500m to 5 km
500 to 1000 ft
800 to 1500m
200 to 500 ft
< 800m
< 200 ft
Symbols :   Thunderstorms  Fog  Heavy snow  Heavy precipitations  Wind > 20 kt
SIGMETs :     Misc.  Thunderstorms  Icing  Turbulence  Mountain Waves  Volcanic Ashes







- Airport Elevation : 158 ft
- IATA code : QAR


EHDL - Deelen Airbase

CURRENT METAR :
  • 220255Z AUTO 29011KT 220V360 9999 SCT036 BKN043 OVC052 12/07 Q1022 BLU

EXPIRED METARs :
  • 220225Z AUTO 29009KT 240V350 9999 FEW031 SCT036 BKN043 12/06 Q1022 BLU
  • 220155Z AUTO 29010G20KT 250V360 9999 FEW032 SCT036 BKN051 12/06 Q1022 BLU
  • 220125Z AUTO 29011KT 230V360 9999 SCT032 BKN036 BKN040 12/07 Q1023 BLU
  • 220055Z AUTO 29011KT 240V360 9999 SCT027 BKN032 OVC038 12/07 Q1023 BLU
  • 220025Z AUTO 30011G21KT 230V010 9999 FEW035 SCT043 BKN049 12/06 Q1023 BLU

Expired Forecast.
No reported NOTAMs for that airfield.



MET'MAP, your aeronautical weather chart ! - Copyright ORBIFLY December 2007 - Disclaimer

ORBIFLY MET'MAP TEAM :

Programming & Development : Alexandra Zaïnal
Concept & Development : Baudouin d'Aumeries
Co-Development & Prog : Marc-Olivier Méhu
Technical & hardware support : Manuel Goepfert

Contact : metmap@orbifly.com




SOURCES & CREDITS :

   NOAA